KPIT/PIT METAR and TAF weather

Enter ICAO airport designator
Station Type Date Time Source
KPIT METAR 2024/07/15 20:51 UTC NOAA

KPIT 152051Z 26012G23KT 10SM SCT065 SCT150 SCT250 33/17 A2988 RMK AO2 PK WND 22027/2022 SLP113 T03280167 56010 $


Station Type Date Time Source
KPIT Decoded METAR 2024/07/15 20:51 UTC NOAA

GREATER PITTSBURGH INTERNATIONAL , PA, United States (KPIT) 40-29N 80-14W 357M
Jul 15, 2024 - 04:51 PM EDT / 2024.07.15 2051 UTC
Wind: from the W (260 degrees) at 14 MPH (12 KT) gusting to 26 MPH (23 KT):0
Visibility: 10 mile(s):0
Sky conditions: partly cloudy
Temperature: 91.0 F (32.8 C)
Dew Point: 62.1 F (16.7 C)
Relative Humidity: 38%
Pressure (altimeter): 29.88 in. Hg (1011 hPa)
Pressure tendency: 0.03 inches (1.0 hPa) lower than three hours ago
ob: KPIT 152051Z 26012G23KT 10SM SCT065 SCT150 SCT250 33/17 A2988 RMK AO2 PK WND 22027/2022 SLP113 T03280167 56010
cycle: 21

Station Type Date Time Source
KPIT TAF 2024/07/15 21:34 UTC NOAA